Time;durP1;ratioP1;P1;durP2;ratioP2;P2;SDS_P1;SDS_P2;PMS_P1;PMS_P2;Temp;Humidity;BMP_temperature;BMP_pressure;BME280_temperature;BME280_humidity;BME280_pressure;Samples;Min_cycle;Max_cycle;Signal;HPM_P1;HPM_P2
2024/02/03 00:04:57;;;;;;;;;;;;;;;2.05;100.00;95580.25;10463217;28;19920;-81
2024/02/03 00:09:58;;;;;;;;;;;;;;;1.90;100.00;95573.44;10461379;28;19916;-79
2024/02/03 00:14:58;;;;;;;;;;;;;;;1.75;100.00;95576.25;10477644;28;20003;-80
2024/02/03 00:19:58;;;;;;;;;;;;;;;1.52;100.00;95575.53;10477245;28;19920;-80
2024/02/03 00:24:59;;;;;;;;;;;;;;;1.70;100.00;95582.94;10444165;28;20425;-80
2024/02/03 00:29:59;;;;;;;;;;;;;;;1.57;100.00;95582.88;10480240;28;19928;-81
2024/02/03 00:35:00;;;;;;;;;;;;;;;1.53;100.00;95589.56;10462536;28;19913;-81
2024/02/03 00:40:03;;;;;;;;;;;;;;;1.51;100.00;95584.47;10462243;28;19977;-81
2024/02/03 00:45:04;;;;;;;;;;;;;;;1.76;100.00;95578.69;10458460;28;19920;-80
2024/02/03 00:50:05;;;;;;;;;;;;;;;1.84;100.00;95573.22;10463328;28;20382;-80
2024/02/03 00:55:05;;;;;;;;;;;;;;;1.85;100.00;95566.91;10461892;28;20306;-80
2024/02/03 01:00:09;;;;;;;;;;;;;;;1.92;100.00;95566.13;10475089;28;20320;-80
2024/02/03 01:05:09;;;;;;;;;;;;;;;1.94;100.00;95553.47;10476602;28;19916;-80
2024/02/03 01:10:10;;;;;;;;;;;;;;;1.97;100.00;95551.25;10460716;28;19912;-80
2024/02/03 01:15:10;;;;;;;;;;;;;;;1.94;100.00;95561.41;10461326;28;20395;-81
2024/02/03 01:20:11;;;;;;;;;;;;;;;1.92;100.00;95550.22;10460599;28;19916;-81
2024/02/03 01:25:13;;;;;;;;;;;;;;;1.92;100.00;95555.50;10477486;28;19916;-80
2024/02/03 01:30:13;;;;;;;;;;;;;;;1.86;100.00;95551.81;10461814;28;19917;-81
2024/02/03 01:35:14;;;;;;;;;;;;;;;1.83;100.00;95538.97;10460547;28;19966;-81
2024/02/03 01:40:14;;;;;;;;;;;;;;;1.88;100.00;95547.97;10460757;28;19938;-81
2024/02/03 01:45:14;;;;;;;;;;;;;;;2.00;100.00;95548.19;10476391;28;19916;-80
2024/02/03 01:50:15;;;;;;;;;;;;;;;2.11;100.00;95532.72;10459412;28;20431;-80
2024/02/03 01:55:15;;;;;;;;;;;;;;;2.19;100.00;95527.22;10460671;28;20379;-79
2024/02/03 02:00:17;;;;;;;;;;;;;;;2.12;100.00;95515.78;10469605;28;20003;-80
2024/02/03 02:05:17;;;;;;;;;;;;;;;2.13;100.00;95501.53;10467284;28;19921;-81
2024/02/03 02:10:18;;;;;;;;;;;;;;;2.02;100.00;95502.91;10467054;28;19919;-84
2024/02/03 02:15:18;;;;;;;;;;;;;;;1.94;100.00;95498.63;10467879;28;19954;-83
2024/02/03 02:20:37;;;;;;;;;;;;;;;1.82;100.00;95498.38;10470049;28;19919;-82
2024/02/03 02:25:37;;;;;;;;;;;;;;;1.68;100.00;95494.88;10464816;28;20650;-83
2024/02/03 02:30:38;;;;;;;;;;;;;;;1.66;100.00;95496.91;10482194;28;19916;-84
2024/02/03 02:35:38;;;;;;;;;;;;;;;1.62;100.00;95500.97;10466916;28;19985;-83
2024/02/03 02:40:38;;;;;;;;;;;;;;;1.61;100.00;95498.53;10465749;28;20011;-82
2024/02/03 02:45:39;;;;;;;;;;;;;;;1.59;100.00;95498.72;10484435;28;19912;-84
2024/02/03 02:50:39;;;;;;;;;;;;;;;1.57;100.00;95492.78;10466175;28;20346;-84
2024/02/03 02:55:46;;;;;;;;;;;;;;;1.71;100.00;95491.00;10467157;28;19920;-83
2024/02/03 03:00:47;;;;;;;;;;;;;;;1.88;100.00;95481.69;10467752;28;19977;-84
2024/02/03 03:05:48;;;;;;;;;;;;;;;1.78;100.00;95475.94;10468230;28;19974;-84
2024/02/03 03:10:48;;;;;;;;;;;;;;;1.50;100.00;95460.16;10468934;28;20617;-84
2024/02/03 03:15:48;;;;;;;;;;;;;;;1.43;100.00;95467.28;10467390;28;19937;-83
2024/02/03 03:20:48;;;;;;;;;;;;;;;1.26;100.00;95472.09;10466033;28;19918;-83
2024/02/03 03:25:49;;;;;;;;;;;;;;;1.15;100.00;95470.81;10466500;28;20647;-83
2024/02/03 03:30:49;;;;;;;;;;;;;;;0.91;100.00;95469.44;10447539;28;19966;-83
2024/02/03 03:35:49;;;;;;;;;;;;;;;0.98;100.00;95473.78;10463449;28;20349;-83
2024/02/03 03:41:02;;;;;;;;;;;;;;;0.82;100.00;95461.69;10464037;28;19916;-83
2024/02/03 03:46:08;;;;;;;;;;;;;;;0.78;100.00;95468.38;10464500;28;19916;-82
2024/02/03 03:51:08;;;;;;;;;;;;;;;0.73;100.00;95465.47;10464932;28;20365;-82
2024/02/03 03:56:12;;;;;;;;;;;;;;;0.83;100.00;95478.34;10463498;28;20007;-82
2024/02/03 04:01:12;;;;;;;;;;;;;;;0.74;100.00;95463.63;10462237;28;19916;-82
2024/02/03 04:06:12;;;;;;;;;;;;;;;0.69;100.00;95466.88;10461105;28;19920;-83
2024/02/03 04:11:18;;;;;;;;;;;;;;;0.57;100.00;95465.75;10462852;28;19981;-81
2024/02/03 04:16:18;;;;;;;;;;;;;;;0.51;100.00;95457.56;10464710;28;19982;-81
2024/02/03 04:21:18;;;;;;;;;;;;;;;0.51;100.00;95460.22;10461753;28;19917;-82
2024/02/03 04:26:18;;;;;;;;;;;;;;;0.36;100.00;95456.84;10462061;28;20425;-81
2024/02/03 04:31:20;;;;;;;;;;;;;;;0.29;100.00;95451.53;10461765;28;19916;-81
2024/02/03 04:36:20;;;;;;;;;;;;;;;0.31;100.00;95454.78;10464616;28;19912;-83
2024/02/03 04:41:23;;;;;;;;;;;;;;;0.14;100.00;95446.31;10460441;28;19917;-82
2024/02/03 04:46:23;;;;;;;;;;;;;;;0.25;100.00;95449.44;10461325;28;20386;-82
2024/02/03 04:51:24;;;;;;;;;;;;;;;0.19;100.00;95447.56;10462675;28;19928;-83
2024/02/03 04:56:25;;;;;;;;;;;;;;;0.19;100.00;95444.94;10458273;28;19920;-82
2024/02/03 05:01:25;;;;;;;;;;;;;;;0.16;100.00;95446.94;10478253;28;19916;-81
2024/02/03 05:06:25;;;;;;;;;;;;;;;0.44;100.00;95454.06;10461602;28;20011;-81
2024/02/03 05:11:25;;;;;;;;;;;;;;;0.62;100.00;95469.47;10461045;28;20302;-82
2024/02/03 05:16:26;;;;;;;;;;;;;;;0.85;100.00;95466.56;10463026;28;19912;-83
2024/02/03 05:21:32;;;;;;;;;;;;;;;1.06;100.00;95469.31;10463565;28;20361;-81
2024/02/03 05:26:33;;;;;;;;;;;;;;;1.19;100.00;95467.56;10457951;28;20165;-82
2024/02/03 05:31:33;;;;;;;;;;;;;;;1.33;100.00;95463.16;10462350;28;20316;-83
2024/02/03 05:36:33;;;;;;;;;;;;;;;1.47;100.00;95457.91;10467924;28;19921;-80
2024/02/03 05:41:33;;;;;;;;;;;;;;;1.50;100.00;95460.97;10469282;28;19924;-81
2024/02/03 05:46:34;;;;;;;;;;;;;;;1.56;100.00;95451.41;10466388;28;20673;-80
2024/02/03 05:51:34;;;;;;;;;;;;;;;1.58;100.00;95451.22;10468593;28;19925;-82
2024/02/03 05:56:40;;;;;;;;;;;;;;;1.62;100.00;95444.50;10469424;28;20339;-83
2024/02/03 06:01:40;;;;;;;;;;;;;;;1.66;100.00;95429.84;10452256;28;20290;-82
2024/02/03 06:06:40;;;;;;;;;;;;;;;1.79;100.00;95445.78;10468068;28;19966;-82
2024/02/03 06:11:42;;;;;;;;;;;;;;;1.86;100.00;95451.91;10454349;28;19916;-81
2024/02/03 06:16:42;;;;;;;;;;;;;;;1.97;100.00;95441.75;10473338;28;19912;-81
2024/02/03 06:21:43;;;;;;;;;;;;;;;2.06;100.00;95435.22;10473193;28;20360;-82
2024/02/03 06:26:43;;;;;;;;;;;;;;;2.26;100.00;95445.03;10488404;28;19920;-82
2024/02/03 06:31:43;;;;;;;;;;;;;;;2.38;100.00;95448.72;10475468;28;19931;-81
2024/02/03 06:36:43;;;;;;;;;;;;;;;2.42;100.00;95447.28;10468266;28;19920;-82
2024/02/03 06:41:46;;;;;;;;;;;;;;;2.42;100.00;95454.44;10471435;28;20587;-81
2024/02/03 06:46:46;;;;;;;;;;;;;;;2.44;100.00;95463.81;10470940;28;19916;-81
2024/02/03 06:51:46;;;;;;;;;;;;;;;2.61;100.00;95452.78;10480812;28;19920;-80
2024/02/03 06:56:46;;;;;;;;;;;;;;;2.74;100.00;95442.16;10451358;28;19916;-80
2024/02/03 07:01:50;;;;;;;;;;;;;;;2.88;100.00;95454.38;10470290;28;19920;-85
2024/02/03 07:06:50;;;;;;;;;;;;;;;3.08;100.00;95461.50;10469688;28;19913;-86
2024/02/03 07:11:50;;;;;;;;;;;;;;;3.28;100.00;95463.28;10469155;28;19912;-83
2024/02/03 07:16:51;;;;;;;;;;;;;;;3.33;100.00;95474.91;10452786;28;20027;-82
2024/02/03 07:21:51;;;;;;;;;;;;;;;3.62;100.00;95464.81;10470044;28;20285;-77
2024/02/03 07:26:51;;;;;;;;;;;;;;;4.03;96.45;95470.72;10469171;28;20003;-80
2024/02/03 07:31:57;;;;;;;;;;;;;;;4.09;93.49;95464.56;10467074;28;19916;-81
2024/02/03 07:36:57;;;;;;;;;;;;;;;5.00;89.92;95434.97;10439707;28;19996;-82
2024/02/03 07:41:58;;;;;;;;;;;;;;;6.15;71.33;95422.69;10469229;28;19928;-80
2024/02/03 07:46:59;;;;;;;;;;;;;;;6.67;67.61;95424.78;10463903;28;19916;-79
2024/02/03 07:51:59;;;;;;;;;;;;;;;8.08;59.88;95425.53;10467793;28;19920;-82
2024/02/03 07:56:59;;;;;;;;;;;;;;;8.91;55.63;95419.69;10462702;28;19996;-80
2024/02/03 08:02:00;;;;;;;;;;;;;;;9.15;52.69;95411.44;10463008;28;20693;-78
2024/02/03 08:07:01;;;;;;;;;;;;;;;9.47;49.80;95425.00;10450454;28;19919;-81
2024/02/03 08:12:04;;;;;;;;;;;;;;;9.11;50.33;95429.09;10465826;28;19920;-76
2024/02/03 08:17:04;;;;;;;;;;;;;;;8.68;50.62;95432.22;10467838;28;19943;-78
2024/02/03 08:22:05;;;;;;;;;;;;;;;8.01;51.44;95440.94;10464189;28;19923;-79
2024/02/03 08:27:05;;;;;;;;;;;;;;;7.66;52.96;95423.97;10466301;28;19919;-78
2024/02/03 08:32:05;;;;;;;;;;;;;;;7.50;55.01;95422.03;10474471;28;19943;-78
2024/02/03 08:37:06;;;;;;;;;;;;;;;7.44;54.81;95414.97;10463097;28;21005;-80
2024/02/03 08:42:06;;;;;;;;;;;;;;;7.54;55.99;95412.47;10461635;28;19924;-77
2024/02/03 08:47:06;;;;;;;;;;;;;;;7.39;55.24;95420.19;10459908;28;19951;-78
2024/02/03 08:52:06;;;;;;;;;;;;;;;7.33;56.86;95409.38;10460487;28;20322;-78
2024/02/03 08:57:06;;;;;;;;;;;;;;;7.34;56.05;95412.88;10461346;28;19920;-79
2024/02/03 09:02:07;;;;;;;;;;;;;;;7.23;57.76;95417.19;10460320;28;20494;-78
2024/02/03 09:07:07;;;;;;;;;;;;;;;7.23;57.99;95419.03;10459395;28;19916;-78
2024/02/03 09:12:08;;;;;;;;;;;;;;;6.73;59.86;95428.38;10462616;28;19956;-79
2024/02/03 09:17:09;;;;;;;;;;;;;;;6.80;61.85;95439.75;10466312;28;20310;-78
2024/02/03 09:22:09;;;;;;;;;;;;;;;6.81;63.00;95430.72;10464993;28;19920;-78
2024/02/03 09:27:10;;;;;;;;;;;;;;;6.97;64.60;95440.69;10463398;28;20014;-78
2024/02/03 09:32:10;;;;;;;;;;;;;;;6.73;65.21;95431.84;10463911;28;20377;-79
2024/02/03 09:37:12;;;;;;;;;;;;;;;7.03;65.93;95422.09;10457639;28;19917;-78
2024/02/03 09:42:12;;;;;;;;;;;;;;;7.29;63.28;95413.56;10455829;28;19958;-77
2024/02/03 09:47:16;;;;;;;;;;;;;;;7.41;62.56;95400.19;10455759;28;20365;-80
2024/02/03 09:52:17;;;;;;;;;;;;;;;7.58;62.17;95402.13;10455978;28;19947;-79
2024/02/03 09:57:18;;;;;;;;;;;;;;;8.01;61.13;95382.06;10456035;28;20328;-79
2024/02/03 10:02:18;;;;;;;;;;;;;;;8.12;59.50;95389.22;10454482;28;19981;-80
2024/02/03 10:07:19;;;;;;;;;;;;;;;8.29;58.54;95381.19;10454488;28;19916;-79
2024/02/03 10:12:22;;;;;;;;;;;;;;;8.31;58.44;95381.75;10455795;28;19916;-78
2024/02/03 10:17:22;;;;;;;;;;;;;;;8.62;58.02;95371.53;10455144;28;20239;-78
2024/02/03 10:22:22;;;;;;;;;;;;;;;9.00;56.34;95356.56;10462551;28;19928;-79
2024/02/03 10:27:23;;;;;;;;;;;;;;;9.13;56.83;95351.91;10463052;28;19916;-79
2024/02/03 10:32:23;;;;;;;;;;;;;;;9.53;56.27;95340.03;10457569;28;20160;-78
2024/02/03 10:37:24;;;;;;;;;;;;;;;9.14;55.55;95340.94;10475768;28;19916;-80
2024/02/03 10:42:25;;;;;;;;;;;;;;;8.66;57.05;95329.00;10458034;28;19920;-78
2024/02/03 10:47:25;;;;;;;;;;;;;;;9.12;56.60;95331.50;10474970;28;20452;-78
2024/02/03 10:52:26;;;;;;;;;;;;;;;8.82;56.33;95327.34;10476741;28;20840;-78
2024/02/03 10:57:26;;;;;;;;;;;;;;;8.76;57.43;95315.75;10472205;28;19921;-79
2024/02/03 11:02:27;;;;;;;;;;;;;;;8.83;57.56;95307.53;10477335;28;19917;-79
2024/02/03 11:07:27;;;;;;;;;;;;;;;8.88;57.55;95302.25;10473190;28;19950;-78
2024/02/03 11:12:34;;;;;;;;;;;;;;;8.97;58.33;95302.63;10460211;28;19913;-78
2024/02/03 11:17:34;;;;;;;;;;;;;;;8.82;57.71;95304.03;10479198;28;20382;-78
2024/02/03 11:22:38;;;;;;;;;;;;;;;9.11;58.35;95295.00;10476614;28;19925;-77
2024/02/03 11:27:39;;;;;;;;;;;;;;;9.31;57.64;95276.47;10474552;28;19938;-79
2024/02/03 11:32:40;;;;;;;;;;;;;;;9.28;58.13;95268.94;10464394;28;20761;-80
2024/02/03 11:37:40;;;;;;;;;;;;;;;9.34;57.38;95273.28;10458036;28;19912;-78
2024/02/03 11:42:44;;;;;;;;;;;;;;;9.29;58.47;95269.75;10458161;28;19916;-79
2024/02/03 11:47:44;;;;;;;;;;;;;;;9.31;57.89;95241.63;10460477;28;20379;-80
2024/02/03 11:52:47;;;;;;;;;;;;;;;9.40;58.25;95240.09;10460061;28;19956;-79
2024/02/03 11:57:47;;;;;;;;;;;;;;;9.30;59.61;95231.94;10460497;28;20421;-79
2024/02/03 12:02:48;;;;;;;;;;;;;;;9.16;61.78;95220.00;10458622;28;20625;-79
2024/02/03 12:07:48;;;;;;;;;;;;;;;9.51;62.12;95199.94;10459403;28;20002;-79
2024/02/03 12:12:48;;;;;;;;;;;;;;;9.62;60.24;95180.19;10459601;28;20015;-79
2024/02/03 12:17:49;;;;;;;;;;;;;;;9.71;59.29;95159.88;10458926;28;19916;-78
2024/02/03 12:22:51;;;;;;;;;;;;;;;9.91;60.99;95158.41;10440172;28;19920;-79
2024/02/03 12:27:51;;;;;;;;;;;;;;;10.33;61.24;95148.72;10458390;28;19920;-78
2024/02/03 12:32:52;;;;;;;;;;;;;;;10.58;58.49;95154.22;10459013;28;19924;-78
2024/02/03 12:37:52;;;;;;;;;;;;;;;10.81;58.92;95149.47;10438646;28;19913;-79
2024/02/03 12:42:52;;;;;;;;;;;;;;;10.58;59.32;95140.00;10458443;28;20281;-78
2024/02/03 12:47:54;;;;;;;;;;;;;;;10.49;57.93;95138.88;10458670;28;19917;-78
2024/02/03 12:52:54;;;;;;;;;;;;;;;10.43;60.02;95143.41;10457508;28;19972;-78
2024/02/03 12:57:58;;;;;;;;;;;;;;;10.28;58.09;95149.47;10470823;28;19998;-79
2024/02/03 13:03:00;;;;;;;;;;;;;;;10.08;58.50;95156.34;10457291;28;20306;-79
2024/02/03 13:08:00;;;;;;;;;;;;;;;9.48;64.65;95160.22;10457619;28;19924;-80
2024/02/03 13:13:00;;;;;;;;;;;;;;;9.68;66.58;95154.19;10457184;28;19924;-78
2024/02/03 13:18:00;;;;;;;;;;;;;;;9.76;66.96;95161.78;10457982;28;20442;-78
2024/02/03 13:23:01;;;;;;;;;;;;;;;9.49;66.12;95151.09;10457085;28;19923;-80
2024/02/03 13:28:02;;;;;;;;;;;;;;;9.68;70.40;95152.31;10457644;28;19928;-79
2024/02/03 13:33:02;;;;;;;;;;;;;;;9.48;66.73;95154.84;10457000;28;19951;-78
2024/02/03 13:38:04;;;;;;;;;;;;;;;9.63;66.91;95149.63;10472194;28;19992;-79
2024/02/03 13:43:05;;;;;;;;;;;;;;;9.66;65.41;95141.03;10457559;28;19920;-80
2024/02/03 13:48:06;;;;;;;;;;;;;;;9.51;64.52;95127.50;10456668;28;19916;-79
2024/02/03 13:53:08;;;;;;;;;;;;;;;9.46;64.79;95124.78;10469594;28;19925;-79
2024/02/03 13:58:08;;;;;;;;;;;;;;;9.14;66.61;95123.72;10493066;28;19915;-78
2024/02/03 14:03:09;;;;;;;;;;;;;;;8.83;70.45;95128.78;10486306;28;19970;-78
2024/02/03 14:08:09;;;;;;;;;;;;;;;9.02;68.94;95118.50;10463869;28;20321;-78
2024/02/03 14:13:09;;;;;;;;;;;;;;;9.12;66.84;95108.94;10464968;28;19917;-78
2024/02/03 14:18:09;;;;;;;;;;;;;;;9.01;68.60;95108.84;10464782;28;19912;-78
2024/02/03 14:23:10;;;;;;;;;;;;;;;9.02;66.94;95106.97;10465129;28;19920;-78
2024/02/03 14:28:10;;;;;;;;;;;;;;;8.94;67.78;95100.19;10464867;28;20394;-80
2024/02/03 14:33:10;;;;;;;;;;;;;;;9.01;66.42;95108.84;10463887;28;20304;-78
2024/02/03 14:38:11;;;;;;;;;;;;;;;8.88;67.71;95099.34;10462393;28;20660;-79
2024/02/03 14:43:11;;;;;;;;;;;;;;;8.83;67.28;95096.63;10462356;28;19916;-80
2024/02/03 14:48:11;;;;;;;;;;;;;;;8.60;69.45;95095.03;10463007;28;19916;-79
2024/02/03 14:53:12;;;;;;;;;;;;;;;8.52;71.23;95084.75;10463309;28;20332;-79
2024/02/03 14:58:12;;;;;;;;;;;;;;;8.46;70.60;95078.53;10463274;28;19912;-79
2024/02/03 15:03:12;;;;;;;;;;;;;;;8.24;73.98;95073.16;10461835;28;19917;-78
2024/02/03 15:08:12;;;;;;;;;;;;;;;8.25;74.13;95082.81;10462471;28;19970;-78
2024/02/03 15:13:13;;;;;;;;;;;;;;;8.09;76.74;95075.66;10476612;28;19979;-78
2024/02/03 15:18:13;;;;;;;;;;;;;;;8.09;76.39;95073.78;10461346;28;19916;-79
2024/02/03 15:23:13;;;;;;;;;;;;;;;8.03;77.46;95066.75;10461062;28;19916;-78
2024/02/03 15:28:13;;;;;;;;;;;;;;;7.90;78.20;95062.59;10461657;28;19912;-78
2024/02/03 15:33:15;;;;;;;;;;;;;;;7.73;80.41;95043.09;10460269;28;20355;-79
2024/02/03 15:38:15;;;;;;;;;;;;;;;7.80;79.73;95054.41;10475179;28;19934;-78
2024/02/03 15:43:16;;;;;;;;;;;;;;;7.70;82.52;95063.94;10458326;28;19922;-79
2024/02/03 15:48:16;;;;;;;;;;;;;;;7.72;82.04;95063.69;10458232;28;19970;-79
2024/02/03 15:53:17;;;;;;;;;;;;;;;7.76;81.23;95072.00;10459599;28;19920;-78
2024/02/03 15:58:17;;;;;;;;;;;;;;;7.76;81.96;95074.69;10476132;28;19913;-79
2024/02/03 16:03:17;;;;;;;;;;;;;;;7.77;81.66;95076.31;10456443;28;19931;-79
2024/02/03 16:08:17;;;;;;;;;;;;;;;7.78;81.40;95075.25;10457303;28;19912;-80
2024/02/03 16:13:18;;;;;;;;;;;;;;;7.77;82.21;95077.16;10454313;28;19969;-77
2024/02/03 16:18:18;;;;;;;;;;;;;;;7.68;82.48;95098.13;10476172;28;20652;-83
2024/02/03 16:23:18;;;;;;;;;;;;;;;7.69;83.18;95093.63;10477219;28;19917;-81
2024/02/03 16:28:18;;;;;;;;;;;;;;;7.57;85.12;95100.91;10478544;28;19912;-79
2024/02/03 16:33:19;;;;;;;;;;;;;;;7.62;84.30;95104.47;10472808;28;19912;-81
2024/02/03 16:38:19;;;;;;;;;;;;;;;7.56;84.87;95097.41;10468432;28;20410;-80
2024/02/03 16:43:19;;;;;;;;;;;;;;;7.60;83.90;95101.22;10469559;28;19920;-80
2024/02/03 16:48:21;;;;;;;;;;;;;;;7.69;84.70;95098.97;10467586;28;20348;-81
2024/02/03 16:53:22;;;;;;;;;;;;;;;7.63;84.51;95111.47;10465228;28;20134;-80
2024/02/03 16:58:24;;;;;;;;;;;;;;;7.65;84.11;95117.34;10473000;28;20494;-79
2024/02/03 17:03:24;;;;;;;;;;;;;;;7.65;84.34;95120.03;10472237;28;20347;-80
2024/02/03 17:08:24;;;;;;;;;;;;;;;7.63;84.15;95127.50;10466365;28;20383;-80
2024/02/03 17:13:25;;;;;;;;;;;;;;;7.62;84.26;95133.91;10470941;28;20387;-81
2024/02/03 17:18:25;;;;;;;;;;;;;;;7.54;86.23;95123.63;10466232;28;19974;-81
2024/02/03 17:23:25;;;;;;;;;;;;;;;7.49;86.59;95120.84;10468993;28;19943;-80
2024/02/03 17:28:25;;;;;;;;;;;;;;;7.50;85.83;95144.66;10464399;28;19912;-80
2024/02/03 17:33:27;;;;;;;;;;;;;;;7.46;86.72;95134.72;10466143;28;19954;-79
2024/02/03 17:38:27;;;;;;;;;;;;;;;7.39;88.23;95148.25;10447371;28;19913;-80
2024/02/03 17:43:28;;;;;;;;;;;;;;;7.39;88.23;95142.09;10463102;28;20294;-83
2024/02/03 17:48:28;;;;;;;;;;;;;;;7.36;88.84;95144.19;10461673;28;20007;-80
2024/02/03 17:53:28;;;;;;;;;;;;;;;7.39;88.52;95144.75;10460881;28;19925;-82
2024/02/03 17:58:29;;;;;;;;;;;;;;;7.39;88.46;95150.13;10467316;28;19924;-88
2024/02/03 18:03:31;;;;;;;;;;;;;;;7.39;88.44;95158.13;10468796;28;20314;-81
2024/02/03 18:08:31;;;;;;;;;;;;;;;7.36;89.07;95154.88;10465272;28;19916;-81
2024/02/03 18:13:40;;;;;;;;;;;;;;;7.34;89.90;95161.53;10462589;28;19912;-81
2024/02/03 18:18:41;;;;;;;;;;;;;;;7.33;90.53;95154.56;10448439;28;20319;-82
2024/02/03 18:23:41;;;;;;;;;;;;;;;7.24;90.67;95156.84;10466293;28;19924;-79
2024/02/03 18:28:43;;;;;;;;;;;;;;;7.26;91.54;95160.06;10459619;28;20302;-80
2024/02/03 18:33:44;;;;;;;;;;;;;;;7.25;91.23;95162.97;10449933;28;19923;-80
2024/02/03 18:38:44;;;;;;;;;;;;;;;7.23;92.09;95165.06;10449151;28;20252;-80
2024/02/03 18:43:45;;;;;;;;;;;;;;;7.18;93.16;95171.94;10457770;28;19920;-80
2024/02/03 18:48:45;;;;;;;;;;;;;;;7.22;92.54;95179.50;10472601;28;20466;-81
2024/02/03 18:53:46;;;;;;;;;;;;;;;7.25;92.10;95185.16;10486034;28;20375;-79
2024/02/03 18:58:55;;;;;;;;;;;;;;;7.23;92.51;95187.28;10474645;28;20290;-81
2024/02/03 19:03:55;;;;;;;;;;;;;;;7.17;92.69;95190.91;10452720;28;19971;-82
2024/02/03 19:08:56;;;;;;;;;;;;;;;7.16;93.22;95191.97;10472358;28;20339;-81
2024/02/03 19:13:56;;;;;;;;;;;;;;;7.06;94.70;95197.13;10475265;28;19913;-81
2024/02/03 19:18:56;;;;;;;;;;;;;;;7.05;95.31;95201.66;10470691;28;19916;-80
2024/02/03 19:23:57;;;;;;;;;;;;;;;6.95;95.68;95207.63;10468005;28;19916;-82
2024/02/03 19:28:58;;;;;;;;;;;;;;;6.85;96.54;95196.72;10468823;28;20111;-79
2024/02/03 19:33:58;;;;;;;;;;;;;;;6.74;97.45;95201.09;10472991;28;19928;-80
2024/02/03 19:38:58;;;;;;;;;;;;;;;6.66;98.81;95207.59;10472051;28;20513;-80
2024/02/03 19:43:59;;;;;;;;;;;;;;;6.68;99.03;95212.69;10457764;28;19969;-80
2024/02/03 19:48:59;;;;;;;;;;;;;;;6.67;99.51;95211.09;10471555;28;19925;-81
2024/02/03 19:54:00;;;;;;;;;;;;;;;6.54;100.00;95216.69;10475162;28;19916;-79
2024/02/03 19:59:00;;;;;;;;;;;;;;;6.43;100.00;95216.50;10467997;28;20391;-79
2024/02/03 20:04:00;;;;;;;;;;;;;;;6.31;100.00;95208.47;10462822;28;20311;-80
2024/02/03 20:09:01;;;;;;;;;;;;;;;6.26;100.00;95218.25;10475225;28;19913;-79
2024/02/03 20:14:01;;;;;;;;;;;;;;;6.30;100.00;95222.88;10469468;28;20440;-81
2024/02/03 20:19:02;;;;;;;;;;;;;;;6.36;100.00;95221.13;10469634;28;19924;-83
2024/02/03 20:24:03;;;;;;;;;;;;;;;6.50;100.00;95222.50;10478951;28;19924;-83
2024/02/03 20:29:04;;;;;;;;;;;;;;;6.52;100.00;95226.78;10458692;28;19919;-82
2024/02/03 20:34:07;;;;;;;;;;;;;;;6.50;100.00;95216.34;10467505;28;20314;-87
2024/02/03 20:39:08;;;;;;;;;;;;;;;6.62;100.00;95221.66;10475707;28;19920;-87
2024/02/03 20:44:09;;;;;;;;;;;;;;;6.63;100.00;95226.78;10451120;28;19916;-88
2024/02/03 20:49:09;;;;;;;;;;;;;;;6.62;100.00;95213.66;10466494;28;20000;-89
2024/02/03 20:54:09;;;;;;;;;;;;;;;6.54;100.00;95214.81;10465539;28;19921;-86
2024/02/03 20:59:09;;;;;;;;;;;;;;;6.45;100.00;95214.38;10446572;28;19955;-85
2024/02/03 21:04:31;;;;;;;;;;;;;;;6.28;100.00;95214.28;10479146;28;20367;-86
2024/02/03 21:09:32;;;;;;;;;;;;;;;6.17;100.00;95217.78;10480659;28;20349;-84
2024/02/03 21:14:32;;;;;;;;;;;;;;;6.07;100.00;95212.22;10447245;28;19966;-83
2024/02/03 21:19:32;;;;;;;;;;;;;;;6.00;100.00;95217.69;10449003;28;19912;-86
2024/02/03 21:24:34;;;;;;;;;;;;;;;5.95;100.00;95210.31;10465312;28;19974;-86
2024/02/03 21:29:35;;;;;;;;;;;;;;;6.03;100.00;95213.72;10482527;28;20491;-85
2024/02/03 21:34:35;;;;;;;;;;;;;;;6.07;100.00;95222.88;10481218;28;20011;-85
2024/02/03 21:39:40;;;;;;;;;;;;;;;6.12;100.00;95213.13;10480008;28;20435;-84
2024/02/03 21:44:41;;;;;;;;;;;;;;;6.14;100.00;95200.38;10480086;28;20007;-86
2024/02/03 21:49:41;;;;;;;;;;;;;;;6.16;100.00;95198.28;10475892;28;20007;-86
2024/02/03 21:54:44;;;;;;;;;;;;;;;6.15;100.00;95193.19;10443721;28;20428;-85
2024/02/03 21:59:44;;;;;;;;;;;;;;;6.23;100.00;95197.38;10441230;28;20299;-86
2024/02/03 22:04:45;;;;;;;;;;;;;;;6.23;100.00;95194.69;10460216;28;19920;-86
2024/02/03 22:09:45;;;;;;;;;;;;;;;6.36;100.00;95196.28;10476233;28;19975;-85
2024/02/03 22:14:45;;;;;;;;;;;;;;;6.37;100.00;95201.41;10480589;28;19919;-85
2024/02/03 22:19:45;;;;;;;;;;;;;;;6.40;100.00;95192.09;10454035;28;20339;-84
2024/02/03 22:24:46;;;;;;;;;;;;;;;6.44;100.00;95191.41;10469533;28;19928;-85
2024/02/03 22:29:46;;;;;;;;;;;;;;;6.48;100.00;95191.75;10473263;28;19991;-85
2024/02/03 22:34:46;;;;;;;;;;;;;;;6.46;100.00;95188.47;10470985;28;19934;-85
2024/02/03 22:39:47;;;;;;;;;;;;;;;6.46;100.00;95183.97;10472033;28;19965;-86
2024/02/03 22:44:48;;;;;;;;;;;;;;;6.56;100.00;95175.34;10490734;28;20450;-84
2024/02/03 22:49:48;;;;;;;;;;;;;;;6.56;100.00;95162.00;10455081;28;20311;-84
2024/02/03 22:54:48;;;;;;;;;;;;;;;6.57;100.00;95152.97;10473513;28;19925;-85
2024/02/03 22:59:48;;;;;;;;;;;;;;;6.75;100.00;95151.13;10468670;28;19919;-85
2024/02/03 23:04:53;;;;;;;;;;;;;;;6.84;100.00;95163.88;10467730;28;19916;-84
2024/02/03 23:09:53;;;;;;;;;;;;;;;6.82;100.00;95157.13;10466099;28;19991;-84
2024/02/03 23:14:53;;;;;;;;;;;;;;;6.94;100.00;95149.09;10471859;28;20011;-83
2024/02/03 23:19:54;;;;;;;;;;;;;;;6.96;100.00;95141.63;10468156;28;20349;-85
2024/02/03 23:24:54;;;;;;;;;;;;;;;7.02;100.00;95146.03;10482664;28;19932;-84
2024/02/03 23:29:54;;;;;;;;;;;;;;;7.02;100.00;95135.34;10481093;28;19928;-84
2024/02/03 23:34:55;;;;;;;;;;;;;;;7.01;100.00;95139.84;10481904;28;20306;-84
2024/02/03 23:39:55;;;;;;;;;;;;;;;7.07;100.00;95127.38;10468093;28;19923;-85
2024/02/03 23:44:55;;;;;;;;;;;;;;;7.19;100.00;95130.81;10484542;28;20294;-85
2024/02/03 23:49:55;;;;;;;;;;;;;;;7.23;100.00;95139.16;10466858;28;19921;-85
2024/02/03 23:54:56;;;;;;;;;;;;;;;7.24;100.00;95130.09;10468210;28;19978;-85
